Ithaca Tompkins Regional Airport
KITH : now visible

Airfield :











YOU CAN JOIN US ON...

 
LOGIN :

Register | Disclaimer

   EN    FR    IT 

 









Legend :    VFR   Marginal VFR   IFR   Intensive IFR   Very Intensive IFR
Visi :
Ceiling :
>= 8 km
>= 3000ft
5 to 8 km
1000 to 3000 ft
1500m to 5 km
500 to 1000 ft
800 to 1500m
200 to 500 ft
< 800m
< 200 ft
Symbols :   Thunderstorms  Fog  Heavy snow  Heavy precipitations  Wind > 20 kt







- Airport Elevation : 1099 ft
- IATA code : ITH


KITH - Ithaca Tompkins Regional

CURRENT METAR :
  • 211756Z 28009KT 10SM OVC006 09/09 A3004 RMK AO2 CIG 003V008 SLP176 T00940089 10094 20067 53012

EXPIRED METARs :
  • 211656Z 27007KT 7SM OVC002 09/09 A3002 RMK AO2 SLP170 T00890089
  • 211641Z 29007KT 4SM BR OVC002 09/09 A3001 RMK AO2
  • 211622Z 31005KT 1SM R32/P6000FT BR OVC002 09/09 A3001 RMK AO2
  • 211613Z 30006KT 1 1/4SM R32/2600VP6000FT BR OVC002 08/08 A3001 RMK AO2
  • 211556Z 29008KT 1/4SM R32/1000V2600FT FG OVC002 08/08 A3001 RMK AO2 SLP168 T00830083
  • 211539Z 29009KT 1/4SM R32/1600V5500FT FG OVC002 08/08 A3001 RMK AO2
  • 211527Z 30007KT M1/4SM R32/1000V2000FT FG OVC002 08/08 A3001 RMK AO2

TAF KITH
Valid from the 21 at 18:00 until the 22 at 18:00 UTC


211739Z 2118/2218 29008KT 6SM BR OVC012
TEMPO 2118/2120 OVC004
FM212100 33005KT P6SM BKN015
FM220300 34005KT 2SM BR OVC007
FM220900 33005KT 3SM BR OVC004
FM221500 32005KT P6SM OVC015
KZNY FIR / North America



MET'MAP, your aeronautical weather chart ! - Copyright ORBIFLY December 2007 - Disclaimer

ORBIFLY MET'MAP TEAM :

Programming & Development : Alexandra Zaïnal
Concept & Development : Baudouin d'Aumeries
Co-Development & Prog : Marc-Olivier Méhu
Technical & hardware support : Manuel Goepfert

Contact : metmap@orbifly.com




SOURCES & CREDITS :

   NOAA       Earth
Advisory